createdAt,value
2022-12-04T00:01:36.742Z,97994.13
2022-12-04T00:06:40.058Z,97987.09
2022-12-04T00:11:43.462Z,97991.13
2022-12-04T00:16:47.720Z,97989.13
2022-12-04T00:21:51.829Z,97996.97
2022-12-04T00:26:55.375Z,97999.66
2022-12-04T00:31:58.955Z,97986.69
2022-12-04T00:37:02.780Z,98000.47
2022-12-04T00:42:06.116Z,97993.00
2022-12-04T00:47:09.703Z,97995.44
2022-12-04T00:52:14.302Z,97988.56
2022-12-04T00:57:17.843Z,97988.78
2022-12-04T01:02:21.304Z,98002.84
2022-12-04T01:07:24.667Z,97989.38
2022-12-04T01:12:28.005Z,97993.13
2022-12-04T01:17:31.860Z,97989.84
2022-12-04T01:22:35.508Z,97993.34
2022-12-04T01:27:39.463Z,97990.66
2022-12-04T01:32:44.082Z,97990.44
2022-12-04T01:37:47.433Z,97995.81
2022-12-04T01:42:51.034Z,97989.28
2022-12-04T01:47:58.897Z,97986.56
2022-12-04T01:53:02.403Z,97985.16
2022-12-04T01:58:07.677Z,97977.09
2022-12-04T02:03:13.301Z,97973.56
2022-12-04T02:08:17.060Z,97978.16
2022-12-04T02:13:23.330Z,97976.38
2022-12-04T02:18:39.110Z,97985.38
2022-12-04T02:24:11.338Z,97979.75
2022-12-04T02:29:30.179Z,97970.63
2022-12-04T02:34:56.661Z,97970.38
2022-12-04T02:40:12.085Z,97973.88
2022-12-04T02:45:21.199Z,97977.41
2022-12-04T02:50:24.938Z,97979.75
2022-12-04T02:55:38.195Z,97982.22
2022-12-04T03:00:44.108Z,97983.03
2022-12-04T03:06:11.312Z,97973.63
2022-12-04T03:11:16.170Z,97965.56
2022-12-04T03:16:31.822Z,97967.78
2022-12-04T03:21:41.711Z,97956.75
2022-12-04T03:26:56.432Z,97968.81
2022-12-04T03:32:03.780Z,97976.91
2022-12-04T03:37:15.450Z,97977.41
2022-12-04T03:42:47.844Z,97984.66
2022-12-04T03:48:08.012Z,97994.28
2022-12-04T03:53:46.897Z,98001.28
2022-12-04T03:58:57.292Z,98003.97
2022-12-04T04:04:04.873Z,98010.19
2022-12-04T04:09:15.139Z,98000.16
2022-12-04T04:14:33.663Z,97998.53
2022-12-04T04:19:39.686Z,98007.06
2022-12-04T04:24:47.286Z,98008.59
2022-12-04T04:29:52.704Z,98019.03
2022-12-04T04:34:59.421Z,98022.78
2022-12-04T04:40:12.346Z,98013.28
2022-12-04T04:45:42.366Z,98013.28
2022-12-04T04:50:47.136Z,98020.09
2022-12-04T04:55:50.809Z,98021.16
2022-12-04T05:01:03.949Z,98023.59
2022-12-04T05:06:07.643Z,98022.53
2022-12-04T05:11:16.015Z,98024.53
2022-12-04T05:16:20.729Z,98029.44
2022-12-04T05:21:24.504Z,98037.72
2022-12-04T05:26:28.781Z,98038.06
2022-12-04T05:31:32.389Z,98037.72
2022-12-04T05:36:35.762Z,98034.28
2022-12-04T05:41:39.370Z,98040.03
2022-12-04T05:46:42.964Z,98048.31
2022-12-04T05:51:46.711Z,98040.56
2022-12-04T05:56:51.891Z,98056.56
2022-12-04T06:01:55.608Z,98065.00
2022-12-04T06:06:59.155Z,98059.16
2022-12-04T06:12:03.413Z,98062.78
2022-12-04T06:17:07.196Z,98070.06
2022-12-04T06:22:10.836Z,98059.28
2022-12-04T06:27:29.459Z,98067.78
2022-12-04T06:32:32.691Z,98073.25
2022-12-04T06:37:36.114Z,98070.94
2022-12-04T06:42:39.721Z,98078.31
2022-12-04T06:47:43.216Z,98073.81
2022-12-04T06:52:46.749Z,98092.03
2022-12-04T06:57:50.081Z,98088.72
2022-12-04T07:02:53.725Z,98092.41
2022-12-04T07:07:57.349Z,98105.25
2022-12-04T07:13:00.807Z,98099.28
2022-12-04T07:18:04.863Z,98104.03
2022-12-04T07:23:08.484Z,98098.72
2022-12-04T07:28:12.022Z,98103.13
2022-12-04T07:33:16.640Z,98095.34
2022-12-04T07:38:20.702Z,98087.88
2022-12-04T07:43:24.903Z,98084.16
2022-12-04T07:48:33.269Z,98086.28
2022-12-04T07:53:37.649Z,98090.44
2022-12-04T07:58:42.368Z,98078.81
2022-12-04T08:03:48.469Z,98085.22
2022-12-04T08:08:53.653Z,98093.22
2022-12-04T08:14:07.002Z,98085.16
2022-12-04T08:19:10.477Z,98072.88
2022-12-04T08:24:13.985Z,98068.63
2022-12-04T08:29:17.450Z,98070.06
2022-12-04T08:34:21.092Z,98059.56
2022-12-04T08:39:24.694Z,98055.94
2022-12-04T08:44:28.159Z,98060.13
2022-12-04T08:49:31.558Z,98049.31
2022-12-04T08:54:36.353Z,98053.16
2022-12-04T08:59:39.777Z,98031.63
2022-12-04T09:04:43.470Z,98033.59
2022-12-04T09:09:48.508Z,98026.31
2022-12-04T09:14:51.993Z,98026.16
2022-12-04T09:20:00.555Z,98011.25
2022-12-04T09:25:06.731Z,98007.00
2022-12-04T09:30:12.672Z,98004.34
2022-12-04T09:35:16.201Z,97994.44
2022-12-04T09:40:38.093Z,97999.66
2022-12-04T09:45:54.224Z,97989.94
2022-12-04T09:50:58.379Z,97975.91
2022-12-04T09:56:07.048Z,97973.22
2022-12-04T10:01:22.270Z,97971.88
2022-12-04T10:06:55.155Z,97969.19
2022-12-04T10:12:10.605Z,97960.56
2022-12-04T10:17:14.150Z,97955.41
2022-12-04T10:22:20.218Z,97958.41
2022-12-04T10:27:32.758Z,97947.31
2022-12-04T10:32:37.130Z,97948.13
2022-12-04T10:37:43.619Z,97946.25
2022-12-04T10:42:58.120Z,97938.66
2022-12-04T10:48:01.690Z,97943.28
2022-12-04T10:53:08.256Z,97935.69
2022-12-04T10:58:19.310Z,97926.75
2022-12-04T11:03:27.634Z,97925.94
2022-12-04T11:08:41.481Z,97925.94
2022-12-04T11:13:45.448Z,97929.47
2022-12-04T11:18:51.022Z,97921.34
2022-12-04T11:23:54.860Z,97915.34
2022-12-04T11:29:00.479Z,97918.06
2022-12-04T11:34:08.476Z,97914.00
2022-12-04T11:39:11.907Z,97902.59
2022-12-04T11:44:26.132Z,97916.19
2022-12-04T11:49:31.860Z,97911.28
2022-12-04T11:55:00.242Z,97907.47
2022-12-04T12:00:17.356Z,97906.97
2022-12-04T12:05:23.301Z,97905.03
2022-12-04T12:10:55.758Z,97908.53
2022-12-04T12:16:11.475Z,97908.47
2022-12-04T12:21:36.568Z,97903.84
2022-12-04T12:26:56.255Z,97904.66
2022-12-04T12:32:11.975Z,97895.66
2022-12-04T12:37:37.437Z,97901.81
2022-12-04T12:43:16.641Z,97896.66
2022-12-04T12:48:35.018Z,97900.97
2022-12-04T12:53:44.823Z,97904.16
2022-12-04T12:58:56.522Z,97904.66
2022-12-04T13:04:22.576Z,97911.13
2022-12-04T13:09:33.665Z,97905.16
2022-12-04T13:14:38.031Z,97911.63
2022-12-04T13:19:45.868Z,97914.56
2022-12-04T13:24:55.048Z,97906.69
2022-12-04T13:30:16.958Z,97902.84
2022-12-04T13:35:35.129Z,97906.88
2022-12-04T13:41:07.332Z,97912.22
2022-12-04T13:46:32.284Z,97899.16
2022-12-04T13:51:39.202Z,97913.72
2022-12-04T13:56:44.946Z,97909.88
2022-12-04T14:01:53.236Z,97916.84
2022-12-04T14:07:00.532Z,97925.94
2022-12-04T14:12:07.619Z,97925.06
2022-12-04T14:17:30.549Z,97929.59
2022-12-04T14:22:43.857Z,97925.44
2022-12-04T14:27:52.590Z,97925.91
2022-12-04T14:33:17.652Z,97920.38
2022-12-04T14:38:23.159Z,97923.53
2022-12-04T14:43:33.667Z,97923.25
2022-12-04T14:48:55.231Z,97929.91
2022-12-04T14:54:16.122Z,97926.56
2022-12-04T14:59:22.449Z,97930.03
2022-12-04T15:04:32.285Z,97928.91
2022-12-04T15:09:36.495Z,97931.50
2022-12-04T15:14:44.303Z,97933.34
2022-12-04T15:19:47.660Z,97934.06
2022-12-04T15:24:52.439Z,97936.75
2022-12-04T15:29:58.008Z,97938.84
2022-12-04T15:35:08.094Z,97944.16
2022-12-04T15:40:21.843Z,97955.47
2022-12-04T15:45:30.442Z,97958.09
2022-12-04T15:50:33.952Z,97965.66
2022-12-04T15:55:46.528Z,97972.94
2022-12-04T16:00:56.869Z,97972.34
2022-12-04T16:06:09.302Z,97976.63
2022-12-04T16:11:18.459Z,97979.88
2022-12-04T16:16:22.857Z,97976.88
2022-12-04T16:21:30.975Z,97981.69
2022-12-04T16:26:37.031Z,97979.25
2022-12-04T16:31:40.851Z,97989.69
2022-12-04T16:36:44.840Z,97998.28
2022-12-04T16:41:48.626Z,98004.69
2022-12-04T16:46:52.333Z,98013.25
2022-12-04T16:51:55.811Z,98021.03
2022-12-04T16:57:00.567Z,98018.81
2022-12-04T17:02:06.874Z,98022.09
2022-12-04T17:07:10.406Z,98030.66
2022-12-04T17:12:14.235Z,98031.72
2022-12-04T17:17:18.744Z,98031.38
2022-12-04T17:22:24.321Z,98034.09
2022-12-04T17:27:28.688Z,98035.66
2022-12-04T17:32:33.690Z,98036.47
2022-12-04T17:37:39.037Z,98034.03
2022-12-04T17:42:43.319Z,98040.72
2022-12-04T17:47:46.832Z,98042.03
2022-12-04T17:52:50.726Z,98044.16
2022-12-04T17:57:55.139Z,98041.94
2022-12-04T18:02:59.571Z,98041.00
2022-12-04T18:08:03.466Z,98041.59
2022-12-04T18:13:07.084Z,98048.84
2022-12-04T18:18:10.504Z,98060.13
2022-12-04T18:23:14.107Z,98063.66
2022-12-04T18:28:18.754Z,98060.38
2022-12-04T18:33:22.391Z,98060.84
2022-12-04T18:38:30.531Z,98065.41
2022-12-04T18:43:35.226Z,98067.28
2022-12-04T18:48:39.757Z,98063.78
2022-12-04T18:53:43.413Z,98071.66
2022-12-04T18:58:46.804Z,98065.09
2022-12-04T19:03:50.180Z,98072.31
2022-12-04T19:08:54.061Z,98075.28
2022-12-04T19:13:58.931Z,98084.19
2022-12-04T19:19:02.826Z,98078.22
2022-12-04T19:24:07.006Z,98077.41
2022-12-04T19:29:11.338Z,98084.19
2022-12-04T19:34:15.602Z,98072.31
2022-12-04T19:39:18.916Z,98075.03
2022-12-04T19:49:46.752Z,98078.06
2022-12-04T19:54:50.329Z,98076.78
2022-12-04T19:59:59.181Z,98067.06
2022-12-04T20:05:02.999Z,98067.06
2022-12-04T20:10:07.738Z,98067.06
2022-12-04T20:15:12.578Z,98061.47
2022-12-04T20:20:16.145Z,98069.41
2022-12-04T20:25:22.012Z,98070.78
2022-12-04T20:30:25.510Z,98073.22
2022-12-04T20:35:29.008Z,98072.75
2022-12-04T20:40:33.822Z,98069.25
2022-12-04T20:45:37.087Z,98069.00
2022-12-04T20:50:40.406Z,98069.56
2022-12-04T20:55:53.624Z,98069.09
2022-12-04T21:00:57.031Z,98068.03
2022-12-04T21:06:00.154Z,98073.31
2022-12-04T21:11:03.418Z,98072.75
2022-12-04T21:16:07.153Z,98065.38
2022-12-04T21:21:10.608Z,98063.50
2022-12-04T21:26:14.763Z,98058.94
2022-12-04T21:31:18.689Z,98057.84
2022-12-04T21:36:22.356Z,98050.59
2022-12-04T21:41:25.904Z,98053.88
2022-12-04T21:46:29.432Z,98048.69
2022-12-04T21:51:56.418Z,98046.59
2022-12-04T21:56:58.731Z,98045.19
2022-12-04T22:02:03.678Z,98047.97
2022-12-04T22:07:07.452Z,98044.81
2022-12-04T22:12:33.267Z,98039.16
2022-12-04T22:17:34.411Z,98041.63
2022-12-04T22:22:37.757Z,98031.06
2022-12-04T22:27:41.206Z,98031.91
2022-12-04T22:32:44.937Z,98025.44
2022-12-04T22:37:48.301Z,98021.91
2022-12-04T22:42:52.059Z,98020.38
2022-12-04T22:47:55.564Z,98021.75
2022-12-04T22:52:58.934Z,98018.50
2022-12-04T22:58:02.725Z,98025.78
2022-12-04T23:03:06.084Z,98017.84
2022-12-04T23:08:09.689Z,98020.53
2022-12-04T23:13:12.987Z,98013.72
2022-12-04T23:18:16.392Z,98026.66
2022-12-04T23:23:20.818Z,98012.25
2022-12-04T23:28:24.244Z,98015.22
2022-12-04T23:33:28.190Z,98017.31
2022-12-04T23:38:32.310Z,98015.47
2022-12-04T23:43:36.143Z,98009.81
2022-12-04T23:48:44.343Z,98014.41
2022-12-04T23:53:48.074Z,98008.41
2022-12-04T23:58:53.778Z,98011.09
